Time;durP1;ratioP1;P1;durP2;ratioP2;P2;SDS_P1;SDS_P2;PMS_P1;PMS_P2;Temp;Humidity;BMP_temperature;BMP_pressure;BME280_temperature;BME280_humidity;BME280_pressure;Samples;Min_cycle;Max_cycle;Signal;HPM_P1;HPM_P2
2022/03/19 00:00:23;;;;;;;;;;;;;;;22.92;37.47;97111.38;2072401;28;991;-61
2022/03/19 00:01:25;;;;;;;;;;;;;;;22.91;37.67;97113.25;2064904;28;2084;-60
2022/03/19 00:02:28;;;;;;;;;;;;;;;22.91;37.79;97113.25;2068288;28;1478;-60
2022/03/19 00:03:29;;;;;;;;;;;;;;;22.90;37.91;97112.38;2072308;28;1297;-63
2022/03/19 00:04:31;;;;;;;;;;;;;;;22.96;37.42;97115.41;2062242;28;1526;-62
2022/03/19 00:05:33;;;;;;;;;;;;;;;22.95;37.51;97113.72;2069350;28;1681;-62
2022/03/19 00:06:38;;;;;;;;;;;;;;;22.97;37.52;97109.91;2073270;28;1059;-62
2022/03/19 00:07:43;;;;;;;;;;;;;;;22.98;37.82;97108.06;2064778;28;1461;-61
2022/03/19 00:08:45;;;;;;;;;;;;;;;22.98;37.91;97113.41;2068477;28;1899;-63
2022/03/19 00:09:47;;;;;;;;;;;;;;;22.96;37.62;97110.91;2072842;28;1253;-62
2022/03/19 00:10:49;;;;;;;;;;;;;;;22.96;37.69;97110.91;2072897;28;1745;-62
2022/03/19 00:11:52;;;;;;;;;;;;;;;22.96;37.77;97110.06;2072110;28;1566;-62
2022/03/19 00:12:54;;;;;;;;;;;;;;;22.97;37.95;97109.91;2071539;28;1578;-63
2022/03/19 00:13:55;;;;;;;;;;;;;;;22.97;38.06;97111.72;2073238;28;1154;-63
2022/03/19 00:14:57;;;;;;;;;;;;;;;22.93;38.01;97108.53;2068233;28;1676;-61
2022/03/19 00:15:59;;;;;;;;;;;;;;;22.94;38.14;97110.22;2064845;28;1571;-62
2022/03/19 00:17:00;;;;;;;;;;;;;;;22.92;38.46;97111.38;2068082;28;1488;-64
2022/03/19 00:18:02;;;;;;;;;;;;;;;22.89;38.48;97105.34;2073150;28;1038;-63
2022/03/19 00:19:05;;;;;;;;;;;;;;;22.88;38.56;97114.41;2078577;28;1060;-64
2022/03/19 00:20:07;;;;;;;;;;;;;;;22.86;38.74;97108.38;2073502;28;1665;-65
2022/03/19 00:21:09;;;;;;;;;;;;;;;22.85;38.51;97112.06;2070151;28;1489;-64
2022/03/19 00:22:11;;;;;;;;;;;;;;;22.89;38.78;97105.34;2072613;28;1116;-64
2022/03/19 00:23:12;;;;;;;;;;;;;;;22.89;38.45;97107.22;2080589;28;1468;-65
2022/03/19 00:24:14;;;;;;;;;;;;;;;22.88;38.53;97110.88;2080720;28;990;-64
2022/03/19 00:25:16;;;;;;;;;;;;;;;22.87;38.44;97106.53;2071889;28;1499;-65
2022/03/19 00:26:18;;;;;;;;;;;;;;;22.87;38.90;97111.88;2068037;28;1083;-64
2022/03/19 00:27:20;;;;;;;;;;;;;;;22.85;38.88;97111.22;2077669;28;1540;-64
2022/03/19 00:28:21;;;;;;;;;;;;;;;22.86;38.69;97110.22;2081118;28;1906;-64
2022/03/19 00:29:23;;;;;;;;;;;;;;;22.86;38.69;97108.38;2077816;28;1440;-64
2022/03/19 00:30:24;;;;;;;;;;;;;;;22.85;38.63;97111.22;2071123;28;1737;-64
2022/03/19 00:31:26;;;;;;;;;;;;;;;22.88;38.71;97108.19;2071711;28;1535;-65
2022/03/19 00:32:28;;;;;;;;;;;;;;;22.87;38.49;97109.22;2080553;28;996;-64
2022/03/19 00:33:29;;;;;;;;;;;;;;;22.87;38.82;97106.53;2071170;28;1666;-63
2022/03/19 00:34:32;;;;;;;;;;;;;;;22.86;38.77;97110.22;2071275;28;1494;-64
2022/03/19 00:35:33;;;;;;;;;;;;;;;22.85;38.54;97109.38;2075989;28;1687;-64
2022/03/19 00:36:35;;;;;;;;;;;;;;;22.83;38.63;97105.22;2078942;28;1636;-64
2022/03/19 00:37:44;;;;;;;;;;;;;;;22.84;38.73;97101.53;2077957;28;1552;-64
2022/03/19 00:38:45;;;;;;;;;;;;;;;22.83;38.85;97099.84;2072878;28;1100;-62
2022/03/19 00:39:47;;;;;;;;;;;;;;;22.83;38.70;97110.56;2072861;28;1573;-63
2022/03/19 00:40:51;;;;;;;;;;;;;;;22.85;38.68;97103.19;2071094;28;1556;-64
2022/03/19 00:41:53;;;;;;;;;;;;;;;22.84;38.49;97101.53;2070442;28;1472;-63
2022/03/19 00:42:54;;;;;;;;;;;;;;;22.85;38.46;97108.53;2072392;28;1534;-64
2022/03/19 00:43:56;;;;;;;;;;;;;;;22.83;38.79;97108.72;2072396;28;1092;-63
2022/03/19 00:44:57;;;;;;;;;;;;;;;22.85;38.58;97103.19;2070944;28;1653;-61
2022/03/19 00:45:59;;;;;;;;;;;;;;;22.89;38.09;97105.34;2079238;28;1654;-61
2022/03/19 00:47:01;;;;;;;;;;;;;;;22.94;37.99;97107.53;2079501;28;1464;-61
2022/03/19 00:48:02;;;;;;;;;;;;;;;22.96;38.06;97107.38;2066695;28;1539;-61
2022/03/19 00:49:04;;;;;;;;;;;;;;;22.94;38.12;97109.34;2070858;28;1984;-62
2022/03/19 00:50:06;;;;;;;;;;;;;;;22.95;38.18;97103.88;2079988;28;1728;-61
2022/03/19 00:51:08;;;;;;;;;;;;;;;22.95;38.25;97108.38;2072081;28;1171;-61
2022/03/19 00:52:10;;;;;;;;;;;;;;;22.92;38.15;97100.69;2070009;28;1712;-61
2022/03/19 00:53:11;;;;;;;;;;;;;;;22.92;38.27;97109.53;2072144;28;1175;-59
2022/03/19 00:54:15;;;;;;;;;;;;;;;22.91;38.27;97110.56;2071538;28;1455;-60
2022/03/19 00:55:16;;;;;;;;;;;;;;;22.90;38.40;97103.50;2077265;28;1496;-60
2022/03/19 00:56:18;;;;;;;;;;;;;;;22.92;38.17;97114.91;2079951;28;1605;-61
2022/03/19 00:57:19;;;;;;;;;;;;;;;22.90;38.33;97112.38;2080951;28;1011;-60
2022/03/19 00:58:21;;;;;;;;;;;;;;;22.92;38.35;97119.41;2079131;28;1471;-61
2022/03/19 00:59:23;;;;;;;;;;;;;;;22.92;38.39;97116.75;2069993;28;1460;-62
2022/03/19 01:00:26;;;;;;;;;;;;;;;22.92;38.39;97114.91;2080976;28;1039;-61
2022/03/19 01:01:28;;;;;;;;;;;;;;;22.93;38.20;97115.72;2076674;28;1500;-61
2022/03/19 01:02:30;;;;;;;;;;;;;;;22.93;38.38;97115.72;2079001;28;1517;-62
2022/03/19 01:03:32;;;;;;;;;;;;;;;22.89;38.14;97113.38;2078965;28;1549;-62
2022/03/19 01:04:33;;;;;;;;;;;;;;;22.88;38.20;97117.09;2076429;28;1609;-62
2022/03/19 01:05:35;;;;;;;;;;;;;;;22.90;38.39;97111.53;2072469;28;1441;-62
2022/03/19 01:06:37;;;;;;;;;;;;;;;22.88;38.17;97109.06;2072817;28;1494;-62
2022/03/19 01:07:43;;;;;;;;;;;;;;;22.88;38.42;97113.53;2076583;28;1630;-61
2022/03/19 01:08:44;;;;;;;;;;;;;;;22.90;38.26;97107.03;2080864;28;1934;-62
2022/03/19 01:09:46;;;;;;;;;;;;;;;22.87;38.67;97106.53;2076108;28;1310;-62
2022/03/19 01:10:47;;;;;;;;;;;;;;;22.87;38.47;97106.53;2079942;28;1126;-62
2022/03/19 01:11:49;;;;;;;;;;;;;;;22.84;38.35;97107.69;2079353;28;1395;-61
2022/03/19 01:12:51;;;;;;;;;;;;;;;22.85;38.62;97113.88;2071723;28;1030;-62
2022/03/19 01:13:54;;;;;;;;;;;;;;;22.84;38.52;97101.53;2071110;28;1499;-62
2022/03/19 01:14:55;;;;;;;;;;;;;;;22.85;38.56;97114.75;2079197;28;1561;-62
2022/03/19 01:15:57;;;;;;;;;;;;;;;22.84;38.69;97109.53;2080953;28;1117;-61
2022/03/19 01:16:59;;;;;;;;;;;;;;;22.86;38.48;97110.22;2079997;28;1540;-62
2022/03/19 01:18:01;;;;;;;;;;;;;;;22.85;38.45;97108.53;2078841;28;1690;-62
2022/03/19 01:19:02;;;;;;;;;;;;;;;22.83;38.57;97110.56;2071595;28;1561;-62
2022/03/19 01:20:04;;;;;;;;;;;;;;;22.84;38.66;97106.88;2072795;28;1179;-60
2022/03/19 01:21:08;;;;;;;;;;;;;;;22.84;38.59;97112.22;2069180;28;1638;-61
2022/03/19 01:22:09;;;;;;;;;;;;;;;22.85;38.49;97108.53;2077682;28;1435;-61
2022/03/19 01:23:11;;;;;;;;;;;;;;;22.86;38.33;97102.19;2080171;28;1527;-61
2022/03/19 01:24:12;;;;;;;;;;;;;;;22.86;38.51;97107.53;2080917;28;1014;-62
2022/03/19 01:25:15;;;;;;;;;;;;;;;22.85;38.40;97106.72;2080891;28;1014;-61
2022/03/19 01:26:17;;;;;;;;;;;;;;;22.84;38.58;97109.53;2078969;28;1520;-60
2022/03/19 01:27:19;;;;;;;;;;;;;;;22.86;38.26;97099.53;2080778;28;1095;-61
2022/03/19 01:28:20;;;;;;;;;;;;;;;22.86;38.27;97104.88;2075345;28;1463;-60
2022/03/19 01:29:22;;;;;;;;;;;;;;;22.84;38.67;97097.00;2072461;28;1996;-60
2022/03/19 01:30:24;;;;;;;;;;;;;;;22.86;38.51;97096.84;2072712;28;1680;-60
2022/03/19 01:31:28;;;;;;;;;;;;;;;22.83;38.45;97099.84;2076260;28;2404;-61
2022/03/19 01:32:30;;;;;;;;;;;;;;;22.83;38.61;97084.63;2077559;28;1181;-60
2022/03/19 01:33:31;;;;;;;;;;;;;;;22.81;38.58;97096.50;2079641;28;1501;-60
2022/03/19 01:34:33;;;;;;;;;;;;;;;22.81;38.51;97091.97;2079556;28;1429;-61
2022/03/19 01:35:34;;;;;;;;;;;;;;;22.83;38.56;97089.97;2080819;28;1036;-61
2022/03/19 01:36:37;;;;;;;;;;;;;;;22.84;38.37;97090.81;2079718;28;1402;-61
2022/03/19 01:37:39;;;;;;;;;;;;;;;22.85;38.71;97092.47;2079964;28;1412;-61
2022/03/19 01:38:40;;;;;;;;;;;;;;;22.84;38.56;97091.63;2078764;28;1509;-62
2022/03/19 01:39:42;;;;;;;;;;;;;;;22.83;38.67;97089.16;2071808;28;1163;-61
2022/03/19 01:40:44;;;;;;;;;;;;;;;22.83;38.42;97086.47;2070788;28;1487;-60
2022/03/19 01:41:45;;;;;;;;;;;;;;;22.84;38.51;97090.81;2072507;28;1728;-60
2022/03/19 01:42:48;;;;;;;;;;;;;;;22.84;38.54;97090.81;2072594;28;1686;-60
2022/03/19 01:43:50;;;;;;;;;;;;;;;22.85;38.46;97079.09;2080446;28;1044;-60
2022/03/19 01:44:53;;;;;;;;;;;;;;;22.85;38.28;97087.97;2080909;28;1043;-60
2022/03/19 01:45:55;;;;;;;;;;;;;;;22.86;38.45;97078.09;2080858;28;1112;-60
2022/03/19 01:46:58;;;;;;;;;;;;;;;22.84;38.33;97080.09;2077089;28;1528;-60
2022/03/19 01:47:59;;;;;;;;;;;;;;;22.85;38.26;97081.75;2080358;28;996;-60
2022/03/19 01:49:01;;;;;;;;;;;;;;;22.84;38.33;97074.75;2075791;28;1910;-60
2022/03/19 01:50:03;;;;;;;;;;;;;;;22.84;38.16;97074.75;2076369;28;1509;-60
2022/03/19 01:51:06;;;;;;;;;;;;;;;22.83;38.54;97078.44;2079485;28;1637;-61
2022/03/19 01:52:08;;;;;;;;;;;;;;;22.81;38.30;97078.59;2079725;28;1694;-60
2022/03/19 01:53:09;;;;;;;;;;;;;;;22.82;38.36;97074.91;2080957;28;1092;-60
2022/03/19 01:54:11;;;;;;;;;;;;;;;22.76;38.45;97067.56;2072007;28;1487;-60
2022/03/19 01:55:13;;;;;;;;;;;;;;;22.79;38.59;97079.78;2078401;28;1667;-61
2022/03/19 01:56:15;;;;;;;;;;;;;;;22.79;38.49;97072.56;2080780;28;1077;-61
2022/03/19 01:57:18;;;;;;;;;;;;;;;22.81;38.37;97075.09;2079953;28;1553;-61
2022/03/19 01:58:20;;;;;;;;;;;;;;;22.82;38.34;97077.59;2080700;28;1167;-60
2022/03/19 01:59:26;;;;;;;;;;;;;;;22.83;38.23;97079.28;2080031;28;1378;-60
2022/03/19 02:00:28;;;;;;;;;;;;;;;22.81;38.50;97077.78;2080628;28;974;-60
2022/03/19 02:01:30;;;;;;;;;;;;;;;22.83;38.41;97083.81;2078733;28;1585;-60
2022/03/19 02:02:32;;;;;;;;;;;;;;;22.83;38.31;97081.13;2072807;28;1692;-60
2022/03/19 02:03:35;;;;;;;;;;;;;;;22.82;38.36;97082.94;2073386;28;1534;-60
2022/03/19 02:04:37;;;;;;;;;;;;;;;22.83;38.47;97089.16;2075206;28;1468;-60
2022/03/19 02:05:39;;;;;;;;;;;;;;;22.82;38.61;97076.75;2080435;28;1225;-60
2022/03/19 02:06:43;;;;;;;;;;;;;;;22.82;38.30;97077.59;2077575;28;1403;-61
2022/03/19 02:07:46;;;;;;;;;;;;;;;22.82;38.55;97076.75;2071849;28;1057;-60
2022/03/19 02:08:48;;;;;;;;;;;;;;;22.82;38.38;97074.91;2071881;28;1663;-60
2022/03/19 02:09:50;;;;;;;;;;;;;;;22.82;38.56;97071.41;2072407;28;1894;-60
2022/03/19 02:10:51;;;;;;;;;;;;;;;22.80;38.84;97073.44;2080141;28;1638;-60
2022/03/19 02:11:53;;;;;;;;;;;;;;;22.83;38.63;97075.78;2073021;28;1730;-61
2022/03/19 02:12:55;;;;;;;;;;;;;;;22.83;38.56;97068.56;2080299;28;1019;-60
2022/03/19 02:13:57;;;;;;;;;;;;;;;22.78;38.41;97057.53;2080491;28;1096;-60
2022/03/19 02:14:59;;;;;;;;;;;;;;;22.81;38.80;97067.06;2081582;28;1091;-61
2022/03/19 02:16:01;;;;;;;;;;;;;;;22.81;38.67;97067.91;2074787;28;1554;-60
2022/03/19 02:17:03;;;;;;;;;;;;;;;22.79;38.69;97071.75;2074041;28;1158;-61
2022/03/19 02:18:04;;;;;;;;;;;;;;;22.81;38.49;97065.22;2075420;28;1508;-61
2022/03/19 02:19:07;;;;;;;;;;;;;;;22.82;38.79;97072.22;2081924;28;1325;-60
2022/03/19 02:20:08;;;;;;;;;;;;;;;22.82;38.52;97071.41;2082256;28;1010;-60
2022/03/19 02:21:10;;;;;;;;;;;;;;;22.82;38.37;97074.91;2080983;28;1724;-61
2022/03/19 02:22:12;;;;;;;;;;;;;;;22.81;38.50;97070.56;2079431;28;1597;-60
2022/03/19 02:26:01;;;;;;;;;;;;;;;22.81;38.59;97073.25;2076159;28;1591;-61
2022/03/19 02:27:03;;;;;;;;;;;;;;;22.81;38.81;97069.75;2070917;28;1529;-61
2022/03/19 02:28:05;;;;;;;;;;;;;;;22.82;38.92;97074.91;2081931;28;1115;-60
2022/03/19 02:29:06;;;;;;;;;;;;;;;22.82;38.84;97072.22;2081435;28;1551;-61
2022/03/19 02:30:10;;;;;;;;;;;;;;;22.82;39.02;97066.03;2082188;28;1906;-61
2022/03/19 02:31:11;;;;;;;;;;;;;;;22.79;38.90;97069.91;2071359;28;1465;-61
2022/03/19 02:32:13;;;;;;;;;;;;;;;22.81;38.83;97067.06;2073076;28;1146;-61
2022/03/19 02:33:15;;;;;;;;;;;;;;;22.83;38.71;97073.09;2076428;28;1570;-61
2022/03/19 02:34:16;;;;;;;;;;;;;;;22.82;38.89;97071.41;2082138;28;1035;-62
2022/03/19 02:35:18;;;;;;;;;;;;;;;22.80;38.95;97070.75;2082001;28;1051;-62
2022/03/19 02:36:22;;;;;;;;;;;;;;;22.81;39.31;97075.94;2073238;28;1017;-63
2022/03/19 02:37:23;;;;;;;;;;;;;;;22.85;38.87;97068.38;2072695;28;1524;-62
2022/03/19 02:38:25;;;;;;;;;;;;;;;22.87;38.90;97069.06;2078330;28;1279;-64
2022/03/19 02:39:31;;;;;;;;;;;;;;;22.85;39.12;97071.91;2081816;28;1116;-64
2022/03/19 02:40:32;;;;;;;;;;;;;;;22.85;39.24;97074.59;2081822;28;1501;-63
2022/03/19 02:41:34;;;;;;;;;;;;;;;22.86;38.78;97068.22;2078268;28;1716;-64
2022/03/19 02:42:36;;;;;;;;;;;;;;;22.87;39.12;97069.88;2081762;28;1667;-64
2022/03/19 02:43:37;;;;;;;;;;;;;;;22.85;39.04;97077.28;2072992;28;1027;-64
2022/03/19 02:44:39;;;;;;;;;;;;;;;22.86;39.95;97075.44;2066089;28;1677;-64
2022/03/19 02:45:40;;;;;;;;;;;;;;;22.83;39.14;97075.78;2073306;28;1486;-63
2022/03/19 02:46:52;;;;;;;;;;;;;;;22.83;39.13;97079.28;2074757;28;1511;-64
2022/03/19 02:47:57;;;;;;;;;;;;;;;22.81;39.13;97075.09;2073567;28;1155;-64
2022/03/19 02:48:59;;;;;;;;;;;;;;;22.82;39.53;97082.94;2072618;28;1551;-64
2022/03/19 02:50:00;;;;;;;;;;;;;;;22.83;39.02;97079.28;2081727;28;1902;-64
2022/03/19 02:51:04;;;;;;;;;;;;;;;22.80;38.97;97089.50;2079373;28;1652;-65
2022/03/19 02:52:06;;;;;;;;;;;;;;;22.82;39.63;97087.47;2081495;28;1442;-65
2022/03/19 02:53:08;;;;;;;;;;;;;;;22.83;39.07;97086.47;2079959;28;1474;-65
2022/03/19 02:54:11;;;;;;;;;;;;;;;22.83;38.84;97089.16;2081036;28;1729;-61
2022/03/19 02:55:12;;;;;;;;;;;;;;;22.85;38.83;97090.66;2078391;28;1584;-61
2022/03/19 02:56:14;;;;;;;;;;;;;;;22.87;38.88;97087.78;2081851;28;1123;-61
2022/03/19 02:57:16;;;;;;;;;;;;;;;22.88;38.84;97087.63;2078627;28;1530;-61
2022/03/19 02:58:17;;;;;;;;;;;;;;;22.86;38.83;97088.81;2081808;28;1111;-62
2022/03/19 02:59:28;;;;;;;;;;;;;;;22.85;38.89;97089.78;2075901;28;1466;-60
2022/03/19 03:00:30;;;;;;;;;;;;;;;22.84;39.89;97082.78;2073389;28;1564;-67
2022/03/19 03:01:32;;;;;;;;;;;;;;;22.80;39.25;97084.97;2079748;28;1412;-66
2022/03/19 03:02:34;;;;;;;;;;;;;;;22.79;39.21;97083.28;2075229;28;1538;-63
2022/03/19 03:03:35;;;;;;;;;;;;;;;22.81;39.25;97085.81;2076015;28;1710;-67
2022/03/19 03:04:37;;;;;;;;;;;;;;;22.79;39.38;97082.44;2080781;28;1323;-65
2022/03/19 03:05:38;;;;;;;;;;;;;;;22.83;39.12;97086.47;2081889;28;1063;-67
2022/03/19 03:06:42;;;;;;;;;;;;;;;22.81;39.26;97089.31;2078431;28;1509;-65
2022/03/19 03:07:43;;;;;;;;;;;;;;;22.79;39.09;97083.28;2079961;28;1672;-67
2022/03/19 03:08:45;;;;;;;;;;;;;;;22.79;39.18;97087.78;2072690;28;1113;-67
2022/03/19 03:09:48;;;;;;;;;;;;;;;22.81;39.20;97088.47;2064510;28;1902;-67
2022/03/19 03:10:49;;;;;;;;;;;;;;;22.80;39.30;97089.50;2060142;28;1674;-67
2022/03/19 03:11:51;;;;;;;;;;;;;;;22.80;38.99;97084.97;2065396;28;1655;-67
2022/03/19 03:12:52;;;;;;;;;;;;;;;22.80;39.27;97094.84;2073216;28;1058;-66
2022/03/19 03:13:54;;;;;;;;;;;;;;;22.79;38.98;97083.28;2081053;28;1714;-68
2022/03/19 03:14:56;;;;;;;;;;;;;;;22.82;38.97;97088.28;2081587;28;1528;-63
2022/03/19 03:15:57;;;;;;;;;;;;;;;22.85;38.79;97087.13;2077359;28;1537;-64
2022/03/19 03:17:02;;;;;;;;;;;;;;;22.87;38.55;97087.78;2078974;28;2850;-66
2022/03/19 03:18:09;;;;;;;;;;;;;;;22.82;38.86;97082.94;2074215;28;1798;-66
2022/03/19 03:19:11;;;;;;;;;;;;;;;22.83;38.89;97086.47;2073302;28;1127;-66
2022/03/19 03:20:13;;;;;;;;;;;;;;;22.83;38.71;97091.84;2073323;28;1460;-66
2022/03/19 03:21:14;;;;;;;;;;;;;;;22.81;39.05;97086.63;2073341;28;1176;-67
2022/03/19 03:22:16;;;;;;;;;;;;;;;22.84;38.93;97085.47;2069947;28;1586;-67
2022/03/19 03:23:17;;;;;;;;;;;;;;;22.85;38.87;97081.75;2081256;28;967;-67
2022/03/19 03:24:19;;;;;;;;;;;;;;;22.84;38.76;97088.13;2080052;28;1584;-64
2022/03/19 03:25:20;;;;;;;;;;;;;;;22.82;38.98;97090.97;2073082;28;1292;-67
2022/03/19 03:26:22;;;;;;;;;;;;;;;22.82;38.63;97088.28;2074311;28;1696;-67
2022/03/19 03:27:23;;;;;;;;;;;;;;;22.81;38.99;97086.63;2080878;28;1679;-66
2022/03/19 03:28:25;;;;;;;;;;;;;;;22.80;39.12;97092.16;2080628;28;1525;-66
2022/03/19 03:29:27;;;;;;;;;;;;;;;22.79;38.91;97082.44;2080212;28;1486;-65
2022/03/19 03:30:28;;;;;;;;;;;;;;;22.77;39.08;97081.78;2077933;28;1906;-66
2022/03/19 03:31:30;;;;;;;;;;;;;;;22.76;39.02;97083.63;2080918;28;1696;-66
2022/03/19 03:32:32;;;;;;;;;;;;;;;22.77;38.79;97095.16;2075552;28;1453;-65
2022/03/19 03:33:33;;;;;;;;;;;;;;;22.78;39.10;97086.13;2071424;28;1108;-66
2022/03/19 03:34:35;;;;;;;;;;;;;;;22.77;38.84;97088.00;2077653;28;2738;-66
2022/03/19 03:35:37;;;;;;;;;;;;;;;22.79;38.80;97087.78;2081854;28;893;-67
2022/03/19 03:36:39;;;;;;;;;;;;;;;22.77;39.06;97089.81;2077479;28;1563;-66
2022/03/19 03:37:40;;;;;;;;;;;;;;;22.80;38.75;97094.84;2073575;28;1015;-66
2022/03/19 03:38:42;;;;;;;;;;;;;;;22.75;39.08;97091.84;2073086;28;1601;-64
2022/03/19 03:39:43;;;;;;;;;;;;;;;22.77;39.04;97090.66;2079006;28;1469;-64
2022/03/19 03:40:45;;;;;;;;;;;;;;;22.76;39.09;97088.13;2081437;28;1072;-65
2022/03/19 03:41:47;;;;;;;;;;;;;;;22.76;39.10;97088.13;2077813;28;1724;-66
2022/03/19 03:42:49;;;;;;;;;;;;;;;22.75;39.07;97087.31;2079764;28;1487;-63
2022/03/19 03:43:50;;;;;;;;;;;;;;;22.78;39.17;97086.13;2076897;28;946;-65
2022/03/19 03:44:57;;;;;;;;;;;;;;;22.78;38.98;97084.28;2079285;28;1494;-63
2022/03/19 03:46:00;;;;;;;;;;;;;;;22.77;39.05;97095.16;2081645;28;1055;-65
2022/03/19 03:47:01;;;;;;;;;;;;;;;22.77;38.97;97089.81;2079287;28;1603;-66
2022/03/19 03:48:03;;;;;;;;;;;;;;;22.78;39.01;97083.47;2081683;28;998;-65
2022/03/19 03:49:05;;;;;;;;;;;;;;;22.74;38.73;97087.47;2081214;28;1627;-65
2022/03/19 03:50:07;;;;;;;;;;;;;;;22.76;38.90;97082.78;2081589;28;1171;-65
2022/03/19 03:51:10;;;;;;;;;;;;;;;22.78;39.14;97086.13;2081489;28;2064;-66
2022/03/19 03:52:13;;;;;;;;;;;;;;;22.77;39.08;97087.13;2079899;28;1737;-65
2022/03/19 03:53:15;;;;;;;;;;;;;;;22.79;38.75;97088.63;2073057;28;1845;-62
2022/03/19 03:54:16;;;;;;;;;;;;;;;22.80;38.60;97087.66;2076902;28;1472;-61
2022/03/19 03:55:18;;;;;;;;;;;;;;;22.83;38.88;97099.84;2076436;28;1073;-61
2022/03/19 03:56:20;;;;;;;;;;;;;;;22.84;38.84;97088.97;2071863;28;1601;-61
2022/03/19 03:57:21;;;;;;;;;;;;;;;22.83;38.97;97091.84;2064385;28;1318;-61
2022/03/19 03:58:23;;;;;;;;;;;;;;;22.85;38.84;97087.13;2076820;28;1561;-62
2022/03/19 03:59:25;;;;;;;;;;;;;;;22.84;38.92;97093.50;2080024;28;1568;-61
2022/03/19 04:00:26;;;;;;;;;;;;;;;22.82;39.03;97090.97;2076799;28;1636;-62
2022/03/19 04:01:28;;;;;;;;;;;;;;;22.81;38.82;97089.31;2064887;28;1503;-61
2022/03/19 04:02:30;;;;;;;;;;;;;;;22.79;39.23;97091.31;2064229;28;1797;-62
2022/03/19 04:03:32;;;;;;;;;;;;;;;22.83;39.01;97091.84;2077443;28;1542;-61
2022/03/19 04:04:33;;;;;;;;;;;;;;;22.84;39.01;97096.16;2064093;28;1048;-61
2022/03/19 04:05:35;;;;;;;;;;;;;;;22.86;38.79;97088.81;2062121;28;1183;-61
2022/03/19 04:06:37;;;;;;;;;;;;;;;22.84;38.97;97096.16;2074230;28;1514;-61
2022/03/19 04:07:38;;;;;;;;;;;;;;;22.86;39.09;97095.00;2074593;28;1641;-62
2022/03/19 04:08:40;;;;;;;;;;;;;;;22.87;38.91;97093.16;2072438;28;1487;-63
2022/03/19 04:09:42;;;;;;;;;;;;;;;22.87;39.12;97087.78;2073260;28;1630;-62
2022/03/19 04:10:44;;;;;;;;;;;;;;;22.86;38.86;97088.81;2074178;28;1902;-62
2022/03/19 04:11:46;;;;;;;;;;;;;;;22.86;38.96;97084.28;2081498;28;1038;-62
2022/03/19 04:12:48;;;;;;;;;;;;;;;22.85;38.91;97087.97;2080607;28;1494;-62
2022/03/19 04:13:49;;;;;;;;;;;;;;;22.88;38.78;97084.97;2081145;28;1041;-62
2022/03/19 04:14:56;;;;;;;;;;;;;;;22.86;39.12;97091.50;2081338;28;1120;-62
2022/03/19 04:15:58;;;;;;;;;;;;;;;22.84;39.05;97086.28;2072015;28;1158;-62
2022/03/19 04:16:59;;;;;;;;;;;;;;;22.85;38.87;97084.44;2067151;28;1465;-62
2022/03/19 04:18:04;;;;;;;;;;;;;;;22.87;39.21;97090.47;2081319;28;1167;-62
2022/03/19 04:19:06;;;;;;;;;;;;;;;22.84;38.86;97086.28;2079778;28;1572;-62
2022/03/19 04:20:08;;;;;;;;;;;;;;;22.83;39.10;97089.97;2081440;28;1057;-62
2022/03/19 04:21:09;;;;;;;;;;;;;;;22.83;38.91;97086.47;2075213;28;1470;-62
2022/03/19 04:22:11;;;;;;;;;;;;;;;22.84;39.19;97088.97;2080161;28;1484;-61
2022/03/19 04:23:12;;;;;;;;;;;;;;;22.83;39.06;97091.84;2077267;28;1506;-62
2022/03/19 04:24:14;;;;;;;;;;;;;;;22.83;39.11;97083.81;2081244;28;1076;-61
2022/03/19 04:25:17;;;;;;;;;;;;;;;22.83;39.06;97089.16;2080770;28;1400;-61
2022/03/19 04:26:18;;;;;;;;;;;;;;;22.82;38.94;97090.13;2078973;28;1606;-62
2022/03/19 04:27:20;;;;;;;;;;;;;;;22.82;38.92;97088.28;2080818;28;1152;-60
2022/03/19 04:28:21;;;;;;;;;;;;;;;22.80;39.14;97089.50;2075719;28;1566;-61
2022/03/19 04:29:23;;;;;;;;;;;;;;;22.80;39.19;97089.50;2081028;28;1139;-60
2022/03/19 04:30:26;;;;;;;;;;;;;;;22.80;39.26;97089.50;2077645;28;1404;-61
2022/03/19 04:31:27;;;;;;;;;;;;;;;22.78;39.20;97089.66;2071684;28;1903;-61
2022/03/19 04:32:29;;;;;;;;;;;;;;;22.78;39.20;97086.13;2063151;28;1429;-61
2022/03/19 04:33:31;;;;;;;;;;;;;;;22.79;39.03;97088.63;2072421;28;1111;-60
2022/03/19 04:34:33;;;;;;;;;;;;;;;22.78;39.33;97088.81;2075735;28;1379;-61
2022/03/19 04:36:55;;;;;;;;;;;;;;;22.77;39.36;97087.13;2074531;28;1505;-62
2022/03/19 04:37:59;;;;;;;;;;;;;;;22.69;39.38;97079.97;2063590;28;1155;-63
2022/03/19 04:39:02;;;;;;;;;;;;;;;22.80;39.47;97092.16;2060018;28;1167;-61
2022/03/19 04:40:04;;;;;;;;;;;;;;;22.82;39.05;97095.50;2077607;28;1523;-61
2022/03/19 04:41:06;;;;;;;;;;;;;;;22.82;39.04;97082.94;2081000;28;1259;-61
2022/03/19 04:42:08;;;;;;;;;;;;;;;22.83;39.27;97083.81;2079997;28;1551;-61
2022/03/19 04:43:09;;;;;;;;;;;;;;;22.82;39.25;97088.28;2081009;28;1141;-61
2022/03/19 04:44:11;;;;;;;;;;;;;;;22.85;39.11;97092.47;2079955;28;1489;-61
2022/03/19 04:45:13;;;;;;;;;;;;;;;22.73;39.16;97072.41;2079050;28;1583;-61
2022/03/19 04:46:14;;;;;;;;;;;;;;;22.84;39.05;97085.47;2080474;28;1092;-62
2022/03/19 04:47:16;;;;;;;;;;;;;;;22.83;39.07;97091.84;2080091;28;1533;-62
2022/03/19 04:48:18;;;;;;;;;;;;;;;22.81;39.21;97096.50;2080974;28;1077;-62
2022/03/19 04:49:19;;;;;;;;;;;;;;;22.80;39.23;97084.97;2076327;28;1528;-62
2022/03/19 04:50:21;;;;;;;;;;;;;;;22.82;39.19;97090.13;2067000;28;1162;-62
2022/03/19 04:51:28;;;;;;;;;;;;;;;22.81;39.11;97091.16;2072746;28;1906;-61
2022/03/19 04:52:31;;;;;;;;;;;;;;;22.80;39.32;97086.81;2081058;28;1167;-62
2022/03/19 04:53:32;;;;;;;;;;;;;;;22.80;39.17;97092.16;2080552;28;1006;-62
2022/03/19 04:54:34;;;;;;;;;;;;;;;22.80;39.26;97087.66;2079819;28;1472;-61
2022/03/19 04:55:37;;;;;;;;;;;;;;;22.80;39.09;97090.31;2080871;28;1151;-62
2022/03/19 04:56:39;;;;;;;;;;;;;;;22.78;39.10;97091.50;2071281;28;1561;-62
2022/03/19 04:57:41;;;;;;;;;;;;;;;22.78;39.40;97091.50;2072258;28;949;-61
2022/03/19 04:58:42;;;;;;;;;;;;;;;22.78;39.32;97092.31;2076906;28;1335;-62
2022/03/19 04:59:46;;;;;;;;;;;;;;;22.81;39.22;97091.16;2075774;28;1419;-61
2022/03/19 05:00:49;;;;;;;;;;;;;;;22.77;39.45;97095.16;2074349;28;1651;-62
2022/03/19 05:01:50;;;;;;;;;;;;;;;22.80;39.24;97101.03;2081529;28;1493;-62
2022/03/19 05:02:52;;;;;;;;;;;;;;;22.80;39.33;97094.84;2074684;28;1525;-62
2022/03/19 05:03:54;;;;;;;;;;;;;;;22.81;39.53;97099.19;2075504;28;1584;-63
2022/03/19 05:04:56;;;;;;;;;;;;;;;22.83;39.41;97102.53;2082033;28;1162;-61
2022/03/19 05:05:57;;;;;;;;;;;;;;;22.87;39.39;97087.78;2074170;28;1460;-62
2022/03/19 05:07:00;;;;;;;;;;;;;;;22.86;39.49;97100.34;2081397;28;1282;-62
2022/03/19 05:08:03;;;;;;;;;;;;;;;22.88;39.30;97092.13;2081273;28;1473;-62
2022/03/19 05:11:45;;;;;;;;;;;;;;;22.93;39.30;97097.81;2073286;28;1916;-64
2022/03/19 05:12:47;;;;;;;;;;;;;;;20.33;22.51;97097.41;2080112;28;1729;-65
2022/03/19 05:13:48;;;;;;;;;;;;;;;17.61;21.67;97094.56;2080237;28;1549;-63
2022/03/19 05:14:50;;;;;;;;;;;;;;;15.53;21.46;97100.50;2080231;28;1645;-62
2022/03/19 05:15:52;;;;;;;;;;;;;;;13.90;21.98;97101.50;2080610;28;1008;-60
2022/03/19 05:16:53;;;;;;;;;;;;;;;12.94;22.73;97099.50;2080093;28;1548;-64
2022/03/19 05:17:55;;;;;;;;;;;;;;;12.64;23.80;97099.84;2072012;28;1218;-62
2022/03/19 05:18:56;;;;;;;;;;;;;;;12.22;23.45;97108.81;2068781;28;1633;-62
2022/03/19 05:19:58;;;;;;;;;;;;;;;11.64;23.71;97113.41;2064569;28;1486;-62
2022/03/19 05:21:00;;;;;;;;;;;;;;;11.44;23.75;97107.66;2064766;28;1138;-62
2022/03/19 05:22:01;;;;;;;;;;;;;;;10.99;24.09;97106.97;2064381;28;1628;-62
2022/03/19 05:23:06;;;;;;;;;;;;;;;10.66;24.07;97109.00;2062349;28;1525;-62
2022/03/19 05:24:08;;;;;;;;;;;;;;;10.60;24.98;97112.00;2065485;28;1554;-62
2022/03/19 05:25:09;;;;;;;;;;;;;;;10.09;24.11;97115.78;2064545;28;1679;-62
2022/03/19 05:26:12;;;;;;;;;;;;;;;9.89;24.73;97109.03;2064555;28;1469;-62
2022/03/19 05:27:13;;;;;;;;;;;;;;;9.80;24.36;97117.44;2072429;28;1003;-62
2022/03/19 05:28:15;;;;;;;;;;;;;;;9.67;24.36;97121.66;2072345;28;1736;-58
2022/03/19 05:29:26;;;;;;;;;;;;;;;9.50;24.60;97122.59;2064715;28;1469;-61
2022/03/19 05:30:27;;;;;;;;;;;;;;;9.28;24.74;97127.31;2065350;28;1588;-61
2022/03/19 05:31:29;;;;;;;;;;;;;;;9.14;24.56;97126.31;2071287;28;1910;-61
2022/03/19 05:32:30;;;;;;;;;;;;;;;9.18;24.52;97121.75;2072714;28;1119;-62
2022/03/19 05:34:53;;;;;;;;;;;;;;;8.71;24.47;97131.19;2072157;28;1148;-62
2022/03/19 05:35:56;;;;;;;;;;;;;;;8.59;25.33;97129.19;2066644;28;1450;-61